Biggs Army Air Field (Fort Bliss) Fort Bliss,El Paso US
ICAO: KBIF
IATA: BIF
Category: Medium
Scheduled Services: No

Elevation: 3946 ft
TransAlt. 18000 ft.

Airport Communications:
EL PASO APP:119.15
EL PASO CLNC DEL:125
EL PASO DEP:121.3
GND:121.6
ANG OPS:49.95
PTD:122.7
TWR:127.9

KBIF Zoom In..

Runways:

(A) RW 03 length 13554 ft width 150 ft
---- / hdg 32

(B) RW 21 length 13554 ft width 150 ft
---- / hdg 212

Location; KBIF
Day. 21 / Time. 23.58 Zulu
* Altimeter: 29.99
* Temperature: 09° c. 48.2°f.
* Wind from: 230° Speed 19 kn.
Dewpoint: -13° c.
Visibility: 10 Statute Miles.
Clouds: Clear (automated report).

KBIF 212358Z AUTO 23019KT 10SM CLR 09/M13 A2999 RMK AO2 PK WND 23029/00 SLP135 T00911130 10109 20088 53008 $


Wind From 230°
Speed 19 kn.

jpsM music video
CHECK IT OUT

jpsM - It Moves..

 
jpsmedia.com for Web Design  worldairports.se 2018   terms of use